Talitha — ZCAN7 — position and weather

sailwx.info

Track history (hours):
 
Tides and Currents Weather Stations Pressure Air Temp Water Temp Dewpoint Dewpoint Depression Visibility Wind Speed Wind Dir Waves Ship Positions

Talitha

Last reported at 2016-Nov-23 12:22 UTC. Time now 2016-Dec-11 04:24 UTC.
Position N 37°19' W 000°54'.
Warning: this ship's position is 17 days out of date.

Length 80 m; draft 3.7 m.

Type: Pleasure craft. MMSI: 310051000.

Date/timePositionNaut miles runAvg speedWind from/ knotsBaromVisibWave heightAir tempDewpointWater temp
2016-Nov-23 12:22N 37°19' W 000°54'1011.6
2016-Nov-23 11:32N 37°25' W 000°45'1110.8
2016-Nov-23 10:33N 37°33' W 000°35'1010.6
2016-Nov-23 09:34N 37°41' W 000°27'16312.6
2016-Nov-22 20:33N 39°57' E 001°30'1212.2
2016-Nov-22 19:33N 40°07' E 001°38'2512.7
2016-Nov-22 17:33N 40°28' E 001°57'1312.9
2016-Nov-22 16:33N 40°39' E 002°06'1312.8
2016-Nov-22 15:32N 40°50' E 002°16'1212.7
2016-Nov-22 14:33N 40°60' E 002°25'1312.7
2016-Nov-22 13:32N 41°10' E 002°35'  
2016-Nov-17 14:17N 41°18' E 002°15'2 2.4
2016-Nov-17 13:29N 41°20' E 002°14'  
Track history (hours):
 
Tides and Currents Weather Stations Pressure Air Temp Water Temp Dewpoint Dewpoint Depression Visibility Wind Speed Wind Dir Waves Ship Positions

Talitha

Last reported at 2016-Nov-23 12:22 UTC. Time now 2016-Dec-11 04:25 UTC.
Position N 37°19' W 000°54'.
Warning: this ship's position is 17 days out of date.

Length 80 m; draft 3.7 m.

Type: Pleasure craft. MMSI: 310051000.

Date/timePositionNaut miles runAvg speedWind from/ knotsBaromVisibWave heightAir tempDewpointWater temp
2016-Nov-23 12:22N 37°19' W 000°54'1011.6
2016-Nov-23 11:32N 37°25' W 000°45'1110.8
2016-Nov-23 10:33N 37°33' W 000°35'1010.6
2016-Nov-23 09:34N 37°41' W 000°27'16312.6
2016-Nov-22 20:33N 39°57' E 001°30'1212.2
2016-Nov-22 19:33N 40°07' E 001°38'2512.7
2016-Nov-22 17:33N 40°28' E 001°57'1312.9
2016-Nov-22 16:33N 40°39' E 002°06'1312.8
2016-Nov-22 15:32N 40°50' E 002°16'1212.7
2016-Nov-22 14:33N 40°60' E 002°25'1312.7
2016-Nov-22 13:32N 41°10' E 002°35'  
2016-Nov-17 14:17N 41°18' E 002°15'2 2.4
2016-Nov-17 13:29N 41°20' E 002°14'  

Dump ship's entire track history